Time;durP1;ratioP1;P1;durP2;ratioP2;P2;SDS_P1;SDS_P2;PMS_P1;PMS_P2;Temp;Humidity;BMP_temperature;BMP_pressure;BME280_temperature;BME280_humidity;BME280_pressure;Samples;Min_cycle;Max_cycle;Signal;HPM_P1;HPM_P2
2021/12/18 00:00:34;;;;;;;0.20;0.20;;;;;;;;;;4854166;29;20076;-84
2021/12/18 00:03:00;;;;;;;0.20;0.20;;;;;;;;;;4851029;29;20041;-81
2021/12/18 00:05:26;;;;;;;0.20;0.20;;;;;;;;;;4852260;29;20546;-81
2021/12/18 00:07:52;;;;;;;0.38;0.38;;;;;;;;;;4852097;29;20592;-82
2021/12/18 00:10:21;;;;;;;0.32;0.32;;;;;;;;;;4852172;29;20076;-82
2021/12/18 00:12:49;;;;;;;0.22;0.22;;;;;;;;;;4852490;29;20535;-81
2021/12/18 00:15:16;;;;;;;0.40;0.40;;;;;;;;;;4851669;29;20069;-81
2021/12/18 00:17:42;;;;;;;0.10;0.10;;;;;;;;;;4851793;29;20044;-82
2021/12/18 00:20:08;;;;;;;0.10;0.10;;;;;;;;;;4851928;29;20050;-82
2021/12/18 00:22:34;;;;;;;0.30;0.30;;;;;;;;;;4852045;29;20049;-82
2021/12/18 00:25:00;;;;;;;0.10;0.10;;;;;;;;;;4852031;29;20206;-83
2021/12/18 00:27:26;;;;;;;0.10;0.10;;;;;;;;;;4853339;29;20041;-82
2021/12/18 00:29:52;;;;;;;0.10;0.10;;;;;;;;;;4831812;29;20045;-83
2021/12/18 00:32:18;;;;;;;0.10;0.10;;;;;;;;;;4851714;29;20037;-83
2021/12/18 00:34:44;;;;;;;0.10;0.10;;;;;;;;;;4851886;29;20030;-83
2021/12/18 00:37:10;;;;;;;0.10;0.10;;;;;;;;;;4851951;29;20831;-83
2021/12/18 00:39:43;;;;;;;0.10;0.10;;;;;;;;;;4853012;29;20030;-83
2021/12/18 00:44:54;;;;;;;0.10;0.10;;;;;;;;;;4851435;29;20062;-82
2021/12/18 00:47:20;;;;;;;0.10;0.10;;;;;;;;;;4851243;29;20037;-82
2021/12/18 00:49:46;;;;;;;0.32;0.32;;;;;;;;;;4851095;29;20040;-81
2021/12/18 00:52:12;;;;;;;0.20;0.20;;;;;;;;;;4851125;29;20872;-81
2021/12/18 00:54:38;;;;;;;0.10;0.10;;;;;;;;;;4852621;29;20038;-81
2021/12/18 00:57:05;;;;;;;0.10;0.10;;;;;;;;;;4852003;29;20052;-81
2021/12/18 00:59:33;;;;;;;0.17;0.17;;;;;;;;;;4851178;29;20037;-81
2021/12/18 01:02:00;;;;;;;0.20;0.20;;;;;;;;;;4851293;29;20066;-81
2021/12/18 01:04:26;;;;;;;0.10;0.10;;;;;;;;;;4851383;29;20536;-80
2021/12/18 01:06:52;;;;;;;0.20;0.20;;;;;;;;;;4851448;29;20112;-81
2021/12/18 01:09:24;;;;;;;0.10;0.10;;;;;;;;;;4853044;29;20048;-81
2021/12/18 01:11:50;;;;;;;0.10;0.10;;;;;;;;;;4851063;29;20657;-81
2021/12/18 01:24:39;;;;;;;0.28;0.28;;;;;;;;;;4849460;29;20057;-81
2021/12/18 01:27:05;;;;;;;0.20;0.20;;;;;;;;;;4851799;29;20132;-81
2021/12/18 01:29:31;;;;;;;0.10;0.10;;;;;;;;;;4851155;29;20045;-81
2021/12/18 01:31:57;;;;;;;0.20;0.20;;;;;;;;;;4851133;29;20045;-81
2021/12/18 01:34:23;;;;;;;0.20;0.20;;;;;;;;;;4851265;29;20072;-83
2021/12/18 01:36:50;;;;;;;0.10;0.10;;;;;;;;;;4851141;29;20033;-82
2021/12/18 01:39:16;;;;;;;0.10;0.10;;;;;;;;;;4852811;29;20109;-82
2021/12/18 01:52:20;;;;;;;0.10;0.10;;;;;;;;;;4794618;29;20562;-82
2021/12/18 01:54:46;;;;;;;0.25;0.25;;;;;;;;;;4794500;29;20503;-81
2021/12/18 01:57:13;;;;;;;0.20;0.20;;;;;;;;;;4795102;29;20892;-81
2021/12/18 01:59:43;;;;;;;0.13;0.13;;;;;;;;;;4794796;29;20039;-81
2021/12/18 02:02:09;;;;;;;0.32;0.32;;;;;;;;;;4794748;29;20126;-81
2021/12/18 02:04:35;;;;;;;0.50;0.50;;;;;;;;;;4794619;29;20043;-81
2021/12/18 02:07:01;;;;;;;0.20;0.20;;;;;;;;;;4794646;29;20155;-81
2021/12/18 02:09:40;;;;;;;0.17;0.17;;;;;;;;;;4795124;29;20077;-81
2021/12/18 02:12:06;;;;;;;0.20;0.20;;;;;;;;;;4794758;29;20047;-81
2021/12/18 02:19:56;;;;;;;0.20;0.20;;;;;;;;;;4794431;29;20805;-80
2021/12/18 02:22:24;;;;;;;0.10;0.10;;;;;;;;;;4837723;29;20050;-79
2021/12/18 02:24:50;;;;;;;0.52;0.52;;;;;;;;;;4850926;29;20033;-79
2021/12/18 02:27:16;;;;;;;0.10;0.10;;;;;;;;;;4852526;29;20057;-80
2021/12/18 02:29:43;;;;;;;0.20;0.20;;;;;;;;;;4850620;29;20512;-81
2021/12/18 02:32:10;;;;;;;0.20;0.20;;;;;;;;;;4850650;29;20076;-81
2021/12/18 02:34:38;;;;;;;;;;;;;;;;;;4843909;29;20137;-81
2021/12/18 02:37:07;;;;;;;0.20;0.20;;;;;;;;;;4836081;29;19924;-81
2021/12/18 02:42:18;;;;;;;0.10;0.10;;;;;;;;;;4850035;29;20045;-81
2021/12/18 02:44:44;;;;;;;0.10;0.10;;;;;;;;;;4850342;29;20413;-81
2021/12/18 02:47:12;;;;;;;0.20;0.20;;;;;;;;;;4850495;29;20033;-80
2021/12/18 02:49:43;;;;;;;0.30;0.30;;;;;;;;;;4831062;29;20118;-81
2021/12/18 02:52:09;;;;;;;0.10;0.10;;;;;;;;;;4840707;29;20046;-81
2021/12/18 02:54:37;;;;;;;0.20;0.20;;;;;;;;;;4855526;29;20030;-81
2021/12/18 02:57:03;;;;;;;0.20;0.20;;;;;;;;;;4853768;29;20124;-81
2021/12/18 02:59:29;;;;;;;0.10;0.10;;;;;;;;;;4853500;29;20911;-81
2021/12/18 03:02:01;;;;;;;0.40;0.40;;;;;;;;;;4852210;29;20033;-81
2021/12/18 03:04:33;;;;;;;0.10;0.10;;;;;;;;;;4853328;29;20033;-81
2021/12/18 03:07:02;;;;;;;0.10;0.10;;;;;;;;;;4853211;29;20038;-81
2021/12/18 03:09:54;;;;;;;0.10;0.10;;;;;;;;;;4855079;29;20039;-80
2021/12/18 03:25:28;;;;;;;0.25;0.25;;;;;;;;;;4852896;29;20052;-81
2021/12/18 03:27:58;;;;;;;0.10;0.10;;;;;;;;;;4835744;29;20090;-81
2021/12/18 03:30:24;;;;;;;0.30;0.30;;;;;;;;;;4837911;29;20065;-82
2021/12/18 03:32:50;;;;;;;0.10;0.10;;;;;;;;;;4833069;29;20053;-81
2021/12/18 03:35:17;;;;;;;0.10;0.10;;;;;;;;;;4832967;29;20037;-81
2021/12/18 03:37:43;;;;;;;0.10;0.10;;;;;;;;;;4852334;29;20029;-81
2021/12/18 03:40:11;;;;;;;0.10;0.10;;;;;;;;;;4836478;29;20042;-81
2021/12/18 03:42:38;;;;;;;0.10;0.10;;;;;;;;;;4837378;29;20029;-81
2021/12/18 03:45:05;;;;;;;0.10;0.10;;;;;;;;;;4839799;29;20037;-81
2021/12/18 03:47:31;;;;;;;0.10;0.10;;;;;;;;;;4846900;29;20030;-81
2021/12/18 03:49:57;;;;;;;0.10;0.10;;;;;;;;;;4849833;29;20038;-82
2021/12/18 03:52:23;;;;;;;0.20;0.20;;;;;;;;;;4850146;29;20045;-80
2021/12/18 03:54:49;;;;;;;0.10;0.10;;;;;;;;;;4852969;29;20025;-80
2021/12/18 03:57:15;;;;;;;0.10;0.10;;;;;;;;;;4854194;29;20029;-81
2021/12/18 03:59:41;;;;;;;0.10;0.10;;;;;;;;;;4852299;29;20037;-80
2021/12/18 04:02:07;;;;;;;0.30;0.30;;;;;;;;;;4852355;29;20120;-81
2021/12/18 04:04:33;;;;;;;0.10;0.10;;;;;;;;;;4851650;29;20352;-81
2021/12/18 04:07:00;;;;;;;0.10;0.10;;;;;;;;;;4852609;29;20166;-81
2021/12/18 04:09:28;;;;;;;0.10;0.10;;;;;;;;;;4854048;29;20052;-81
2021/12/18 04:11:54;;;;;;;0.10;0.10;;;;;;;;;;4852248;29;20045;-81
2021/12/18 04:14:21;;;;;;;0.10;0.10;;;;;;;;;;4852237;29;20037;-81
2021/12/18 04:16:47;;;;;;;0.20;0.20;;;;;;;;;;4852283;29;20417;-80
2021/12/18 04:19:13;;;;;;;0.10;0.10;;;;;;;;;;4852177;29;20357;-80
2021/12/18 04:21:39;;;;;;;0.20;0.20;;;;;;;;;;4853640;29;20425;-80
2021/12/18 04:24:05;;;;;;;0.10;0.10;;;;;;;;;;4852755;29;20749;-80
2021/12/18 04:26:32;;;;;;;0.10;0.10;;;;;;;;;;4851848;29;20775;-80
2021/12/18 04:28:58;;;;;;;0.22;0.22;;;;;;;;;;4851994;29;20034;-79
2021/12/18 04:31:24;;;;;;;0.10;0.10;;;;;;;;;;4835496;29;20531;-79
2021/12/18 04:33:50;;;;;;;0.13;0.13;;;;;;;;;;4852114;29;20033;-82
2021/12/18 04:36:17;;;;;;;0.20;0.20;;;;;;;;;;4853781;29;20390;-81
2021/12/18 04:38:43;;;;;;;0.10;0.10;;;;;;;;;;4832315;29;20542;-79
2021/12/18 04:41:10;;;;;;;0.10;0.10;;;;;;;;;;4832036;29;20043;-82
2021/12/18 04:43:36;;;;;;;0.10;0.10;;;;;;;;;;4832577;29;20137;-81
2021/12/18 04:46:02;;;;;;;0.10;0.10;;;;;;;;;;4851617;29;20048;-82
2021/12/18 04:48:28;;;;;;;0.30;0.30;;;;;;;;;;4853394;29;20056;-80
2021/12/18 04:50:55;;;;;;;0.20;0.20;;;;;;;;;;4851584;29;20450;-80
2021/12/18 04:53:21;;;;;;;0.10;0.10;;;;;;;;;;4851928;29;20540;-79
2021/12/18 04:55:47;;;;;;;0.17;0.17;;;;;;;;;;4850450;29;20105;-79
2021/12/18 04:58:14;;;;;;;0.15;0.15;;;;;;;;;;4851917;29;20033;-79
2021/12/18 05:00:41;;;;;;;0.20;0.20;;;;;;;;;;4852675;29;20490;-80
2021/12/18 05:03:08;;;;;;;;;;;;;;;;;;4852488;29;20128;-80
2021/12/18 05:05:34;;;;;;;0.32;0.32;;;;;;;;;;4851403;29;19959;-80
2021/12/18 05:08:01;;;;;;;0.10;0.10;;;;;;;;;;4851700;29;20033;-79
2021/12/18 05:10:27;;;;;;;;;;;;;;;;;;4851938;29;20034;-80
2021/12/18 05:12:53;;;;;;;0.10;0.10;;;;;;;;;;4851451;29;19976;-79
2021/12/18 05:15:19;;;;;;;0.17;0.17;;;;;;;;;;4852950;29;20029;-79
2021/12/18 05:17:45;;;;;;;0.10;0.10;;;;;;;;;;4851193;29;20041;-80
2021/12/18 05:20:11;;;;;;;0.20;0.20;;;;;;;;;;4851157;29;20500;-80
2021/12/18 05:22:38;;;;;;;0.10;0.10;;;;;;;;;;4851221;29;20034;-81
2021/12/18 05:25:04;;;;;;;0.10;0.10;;;;;;;;;;4851253;29;20286;-81
2021/12/18 05:27:30;;;;;;;0.40;0.40;;;;;;;;;;4852854;29;20525;-82
2021/12/18 05:29:56;;;;;;;0.20;0.20;;;;;;;;;;4851021;29;20049;-82
2021/12/18 05:32:22;;;;;;;0.10;0.10;;;;;;;;;;4850847;29;20045;-81
2021/12/18 05:34:48;;;;;;;0.30;0.30;;;;;;;;;;4850947;29;20052;-81
2021/12/18 05:37:19;;;;;;;0.20;0.20;;;;;;;;;;4850943;29;20098;-82
2021/12/18 05:39:46;;;;;;;0.28;0.28;;;;;;;;;;4835060;29;20029;-81
2021/12/18 05:42:12;;;;;;;0.10;0.10;;;;;;;;;;4852466;29;20033;-79
2021/12/18 05:44:38;;;;;;;0.20;0.20;;;;;;;;;;4850986;29;20056;-79
2021/12/18 05:47:04;;;;;;;0.22;0.22;;;;;;;;;;4851146;29;20037;-79
2021/12/18 05:49:31;;;;;;;0.27;0.27;;;;;;;;;;4851358;29;20060;-79
2021/12/18 05:51:57;;;;;;;0.20;0.20;;;;;;;;;;4851111;29;20843;-81
2021/12/18 05:54:23;;;;;;;0.20;0.20;;;;;;;;;;4851701;29;20072;-78
2021/12/18 05:56:49;;;;;;;0.20;0.20;;;;;;;;;;4850976;29;20700;-79
2021/12/18 05:59:15;;;;;;;0.20;0.20;;;;;;;;;;4831373;29;20034;-79
2021/12/18 06:01:41;;;;;;;0.20;0.20;;;;;;;;;;4850869;29;20029;-80
2021/12/18 06:04:08;;;;;;;0.43;0.43;;;;;;;;;;4849617;29;20089;-80
2021/12/18 06:06:34;;;;;;;0.10;0.10;;;;;;;;;;4852782;29;20092;-79
2021/12/18 06:09:00;;;;;;;0.20;0.20;;;;;;;;;;4835293;29;20041;-80
2021/12/18 06:11:30;;;;;;;0.20;0.20;;;;;;;;;;4850559;29;20042;-79
2021/12/18 06:13:56;;;;;;;0.10;0.10;;;;;;;;;;4850396;29;20037;-79
2021/12/18 06:16:22;;;;;;;0.20;0.20;;;;;;;;;;4850729;29;20049;-80
2021/12/18 06:18:50;;;;;;;0.05;0.05;;;;;;;;;;4851000;29;20049;-82
2021/12/18 06:21:17;;;;;;;0.20;0.20;;;;;;;;;;4850078;29;20041;-84
2021/12/18 06:23:44;;;;;;;0.10;0.10;;;;;;;;;;4850536;29;20165;-83
2021/12/18 06:26:11;;;;;;;0.30;0.28;;;;;;;;;;4831558;29;20029;-84
2021/12/18 06:28:37;;;;;;;0.40;0.40;;;;;;;;;;4854340;29;20060;-83
2021/12/18 06:31:03;;;;;;;0.20;0.20;;;;;;;;;;4837468;29;20066;-83
2021/12/18 06:33:30;;;;;;;0.17;0.17;;;;;;;;;;4839421;29;20033;-83
2021/12/18 06:35:56;;;;;;;0.20;0.20;;;;;;;;;;4854071;29;20412;-81
2021/12/18 06:38:22;;;;;;;0.20;0.20;;;;;;;;;;4854624;29;20034;-81
2021/12/18 06:40:49;;;;;;;0.00;0.00;;;;;;;;;;4855793;29;20108;-83
2021/12/18 06:43:15;;;;;;;0.10;0.10;;;;;;;;;;4835644;29;20512;-82
2021/12/18 06:45:41;;;;;;;0.20;0.20;;;;;;;;;;4854117;29;20057;-82
2021/12/18 06:48:07;;;;;;;0.10;0.10;;;;;;;;;;4853324;29;20271;-82
2021/12/18 06:50:34;;;;;;;0.10;0.10;;;;;;;;;;4832978;29;20102;-82
2021/12/18 06:53:00;;;;;;;0.77;0.68;;;;;;;;;;4852694;29;20045;-82
2021/12/18 06:55:27;;;;;;;0.10;0.10;;;;;;;;;;4852747;29;20052;-82
2021/12/18 06:57:53;;;;;;;0.10;0.10;;;;;;;;;;4836062;29;20377;-81
2021/12/18 07:00:20;;;;;;;0.10;0.10;;;;;;;;;;4851907;29;20558;-81
2021/12/18 07:02:46;;;;;;;0.13;0.13;;;;;;;;;;4833684;29;20424;-81
2021/12/18 07:05:12;;;;;;;0.10;0.10;;;;;;;;;;4850167;29;20120;-81
2021/12/18 07:07:38;;;;;;;0.13;0.13;;;;;;;;;;4856517;29;20040;-81
2021/12/18 07:10:05;;;;;;;0.10;0.10;;;;;;;;;;4836657;29;20144;-81
2021/12/18 07:12:31;;;;;;;0.10;0.10;;;;;;;;;;4853613;29;20049;-81
2021/12/18 07:14:57;;;;;;;0.10;0.10;;;;;;;;;;4855020;29;20037;-81
2021/12/18 07:17:23;;;;;;;0.10;0.10;;;;;;;;;;4851962;29;20133;-81
2021/12/18 07:19:49;;;;;;;0.13;0.13;;;;;;;;;;4851966;29;20061;-81
2021/12/18 07:22:16;;;;;;;0.20;0.20;;;;;;;;;;4851063;29;20450;-81
2021/12/18 07:24:42;;;;;;;0.10;0.10;;;;;;;;;;4835315;29;20714;-81
2021/12/18 07:27:08;;;;;;;0.20;0.20;;;;;;;;;;4852378;29;20033;-82
2021/12/18 07:29:34;;;;;;;0.20;0.20;;;;;;;;;;4835941;29;20041;-80
2021/12/18 07:32:00;;;;;;;0.10;0.10;;;;;;;;;;4851660;29;20089;-79
2021/12/18 07:34:26;;;;;;;0.10;0.10;;;;;;;;;;4850492;29;20053;-80
2021/12/18 07:36:52;;;;;;;0.20;0.20;;;;;;;;;;4850234;29;20045;-80
2021/12/18 07:39:18;;;;;;;0.20;0.20;;;;;;;;;;4852851;29;20033;-80
2021/12/18 07:41:44;;;;;;;0.20;0.20;;;;;;;;;;4851425;29;20033;-78
2021/12/18 07:44:10;;;;;;;0.10;0.10;;;;;;;;;;4850343;29;20124;-79
2021/12/18 07:46:37;;;;;;;0.10;0.10;;;;;;;;;;4849500;29;20049;-81
2021/12/18 07:49:03;;;;;;;0.30;0.30;;;;;;;;;;4848493;29;20098;-86
2021/12/18 07:51:30;;;;;;;0.10;0.10;;;;;;;;;;4842173;29;20046;-84
2021/12/18 07:53:56;;;;;;;0.10;0.10;;;;;;;;;;4840605;29;20034;-87
2021/12/18 07:56:22;;;;;;;0.10;0.10;;;;;;;;;;4841989;29;20505;-89
2021/12/18 07:58:48;;;;;;;0.20;0.20;;;;;;;;;;4843284;29;20026;-89
2021/12/18 08:01:14;;;;;;;0.00;0.00;;;;;;;;;;4843885;29;20041;-88
2021/12/18 08:03:40;;;;;;;0.10;0.10;;;;;;;;;;4837496;29;20057;-87
2021/12/18 08:06:07;;;;;;;0.10;0.10;;;;;;;;;;4843182;29;20038;-87
2021/12/18 08:08:33;;;;;;;0.00;0.00;;;;;;;;;;4839205;29;20038;-85
2021/12/18 08:10:59;;;;;;;0.10;0.10;;;;;;;;;;4840113;29;20029;-86
2021/12/18 08:13:25;;;;;;;1.30;0.70;;;;;;;;;;4840066;29;20275;-85
2021/12/18 08:15:51;;;;;;;0.20;0.20;;;;;;;;;;4839020;29;20026;-88
2021/12/18 08:18:17;;;;;;;1.60;0.40;;;;;;;;;;4838555;29;20068;-84
2021/12/18 08:20:43;;;;;;;0.22;0.20;;;;;;;;;;4838904;29;20034;-82
2021/12/18 08:23:09;;;;;;;0.20;0.20;;;;;;;;;;4838248;29;20402;-81
2021/12/18 08:25:35;;;;;;;0.20;0.20;;;;;;;;;;4837571;29;20383;-85
2021/12/18 08:28:02;;;;;;;0.32;0.32;;;;;;;;;;4840863;29;20040;-84
2021/12/18 08:30:28;;;;;;;0.10;0.10;;;;;;;;;;4841413;29;20057;-86
2021/12/18 08:32:55;;;;;;;0.10;0.10;;;;;;;;;;4838161;29;20463;-85
2021/12/18 08:35:21;;;;;;;0.00;0.00;;;;;;;;;;4843166;29;20185;-85
2021/12/18 08:37:47;;;;;;;0.10;0.10;;;;;;;;;;4845543;29;20132;-85
2021/12/18 08:40:13;;;;;;;0.20;0.20;;;;;;;;;;4850029;29;20030;-84
2021/12/18 08:42:40;;;;;;;0.15;0.15;;;;;;;;;;4841072;29;20029;-86
2021/12/18 08:45:06;;;;;;;0.20;0.20;;;;;;;;;;4846331;29;20041;-86
2021/12/18 08:47:32;;;;;;;0.10;0.10;;;;;;;;;;4844048;29;20045;-85
2021/12/18 08:50:00;;;;;;;0.30;0.30;;;;;;;;;;4838505;29;20030;-86
2021/12/18 08:52:26;;;;;;;0.98;0.95;;;;;;;;;;4835493;29;20422;-86
2021/12/18 08:54:52;;;;;;;1.13;0.37;;;;;;;;;;4825553;29;20522;-86
2021/12/18 08:57:18;;;;;;;0.10;0.10;;;;;;;;;;4836606;29;20467;-85
2021/12/18 08:59:44;;;;;;;0.30;0.30;;;;;;;;;;4837826;29;20030;-87
2021/12/18 09:02:10;;;;;;;0.10;0.10;;;;;;;;;;4842010;29;20069;-86
2021/12/18 09:04:37;;;;;;;0.47;0.35;;;;;;;;;;4838581;29;20449;-87
2021/12/18 09:07:04;;;;;;;0.13;0.13;;;;;;;;;;4838651;29;20038;-87
2021/12/18 09:09:30;;;;;;;0.20;0.20;;;;;;;;;;4844857;29;20030;-86
2021/12/18 09:11:56;;;;;;;0.20;0.20;;;;;;;;;;4837861;29;20057;-86
2021/12/18 09:14:22;;;;;;;0.30;0.30;;;;;;;;;;4838872;29;20044;-85
2021/12/18 09:16:48;;;;;;;0.10;0.10;;;;;;;;;;4838588;29;20030;-86
2021/12/18 09:19:14;;;;;;;0.17;0.17;;;;;;;;;;4839454;29;20442;-86
2021/12/18 09:21:40;;;;;;;0.10;0.10;;;;;;;;;;4842731;29;20770;-87
2021/12/18 09:24:06;;;;;;;0.28;0.28;;;;;;;;;;4828358;29;20866;-87
2021/12/18 09:26:32;;;;;;;0.10;0.10;;;;;;;;;;4845100;29;20041;-86
2021/12/18 09:28:58;;;;;;;0.17;0.17;;;;;;;;;;4839221;29;20038;-86
2021/12/18 09:31:25;;;;;;;0.10;0.10;;;;;;;;;;4838238;29;20042;-87
2021/12/18 09:33:51;;;;;;;0.10;0.10;;;;;;;;;;4835329;29;20434;-87
2021/12/18 09:36:17;;;;;;;0.20;0.20;;;;;;;;;;4841133;29;20112;-89
2021/12/18 09:38:43;;;;;;;0.10;0.10;;;;;;;;;;4833631;29;20041;-86
2021/12/18 09:41:09;;;;;;;0.10;0.10;;;;;;;;;;4837076;29;20119;-80
2021/12/18 09:43:35;;;;;;;0.30;0.30;;;;;;;;;;4841964;29;20045;-82
2021/12/18 09:46:05;;;;;;;0.20;0.20;;;;;;;;;;4846742;29;20120;-82
2021/12/18 09:48:31;;;;;;;0.40;0.40;;;;;;;;;;4846909;29;20101;-83
2021/12/18 09:50:59;;;;;;;0.20;0.20;;;;;;;;;;4843317;29;20066;-83
2021/12/18 09:53:25;;;;;;;0.20;0.20;;;;;;;;;;4842839;29;20170;-83
2021/12/18 09:55:51;;;;;;;0.10;0.10;;;;;;;;;;4846209;29;20029;-83
2021/12/18 09:58:17;;;;;;;0.20;0.20;;;;;;;;;;4847997;29;20090;-82
2021/12/18 10:00:43;;;;;;;0.10;0.10;;;;;;;;;;4849922;29;20037;-84
2021/12/18 10:03:09;;;;;;;0.10;0.10;;;;;;;;;;4852587;29;20022;-82
2021/12/18 10:05:36;;;;;;;0.25;0.25;;;;;;;;;;4850682;29;20068;-82
2021/12/18 10:08:06;;;;;;;0.10;0.10;;;;;;;;;;4851110;29;20038;-82
2021/12/18 10:10:32;;;;;;;0.20;0.17;;;;;;;;;;4851247;29;20041;-83
2021/12/18 10:13:05;;;;;;;0.10;0.10;;;;;;;;;;4851489;29;20049;-83
2021/12/18 10:15:31;;;;;;;0.20;0.20;;;;;;;;;;4854604;29;20034;-83
2021/12/18 10:18:04;;;;;;;0.10;0.10;;;;;;;;;;4852328;29;20033;-83
2021/12/18 10:20:30;;;;;;;0.30;0.30;;;;;;;;;;4834245;29;20052;-83
2021/12/18 10:22:58;;;;;;;0.10;0.10;;;;;;;;;;4851283;29;20029;-82
2021/12/18 10:25:25;;;;;;;0.10;0.10;;;;;;;;;;4851342;29;20286;-82
2021/12/18 10:27:57;;;;;;;0.10;0.10;;;;;;;;;;4851802;29;20041;-83
2021/12/18 10:30:23;;;;;;;0.50;0.50;;;;;;;;;;4852285;29;20128;-82
2021/12/18 10:33:04;;;;;;;0.10;0.10;;;;;;;;;;4851673;29;20110;-82
2021/12/18 10:35:46;;;;;;;0.10;0.10;;;;;;;;;;4845234;29;20040;-82
2021/12/18 10:38:30;;;;;;;0.10;0.10;;;;;;;;;;4840431;29;20457;-82
2021/12/18 10:40:57;;;;;;;0.10;0.10;;;;;;;;;;4838686;29;20033;-82
2021/12/18 10:43:23;;;;;;;0.10;0.10;;;;;;;;;;4838022;29;20038;-82
2021/12/18 10:45:49;;;;;;;0.10;0.10;;;;;;;;;;4836890;29;20405;-82
2021/12/18 10:48:17;;;;;;;0.65;0.65;;;;;;;;;;4840772;29;20776;-83
2021/12/18 10:50:50;;;;;;;0.73;0.73;;;;;;;;;;4838590;29;20048;-83
2021/12/18 10:53:19;;;;;;;0.10;0.10;;;;;;;;;;4838438;29;20430;-83
2021/12/18 10:55:47;;;;;;;0.10;0.10;;;;;;;;;;4841401;29;20029;-82
2021/12/18 10:58:17;;;;;;;0.10;0.10;;;;;;;;;;4836229;29;20033;-82
2021/12/18 11:00:48;;;;;;;0.45;0.45;;;;;;;;;;4835681;29;20033;-83
2021/12/18 11:03:19;;;;;;;0.17;0.17;;;;;;;;;;4840797;29;20036;-83
2021/12/18 11:06:06;;;;;;;0.10;0.10;;;;;;;;;;4837888;29;20033;-84
2021/12/18 11:08:33;;;;;;;0.50;0.50;;;;;;;;;;4847883;29;20041;-80
2021/12/18 11:13:51;;;;;;;1.77;0.73;;;;;;;;;;4849112;29;20085;-80
2021/12/18 11:16:18;;;;;;;0.10;0.10;;;;;;;;;;4847651;29;20129;-83
2021/12/18 11:18:45;;;;;;;0.52;0.52;;;;;;;;;;4852410;29;20406;-81
2021/12/18 11:21:11;;;;;;;;;;;;;;;;;;4850131;29;21841;-80
2021/12/18 11:23:39;;;;;;;0.10;0.10;;;;;;;;;;4851912;29;20308;-80
2021/12/18 11:26:06;;;;;;;0.15;0.15;;;;;;;;;;4850177;29;20032;-81
2021/12/18 11:28:32;;;;;;;0.10;0.10;;;;;;;;;;4851560;29;20140;-80
2021/12/18 11:30:59;;;;;;;0.10;0.10;;;;;;;;;;4851181;29;20037;-80
2021/12/18 11:33:25;;;;;;;0.30;0.30;;;;;;;;;;4850834;29;20037;-80
2021/12/18 11:35:51;;;;;;;0.10;0.10;;;;;;;;;;4849908;29;20065;-79
2021/12/18 11:38:18;;;;;;;0.10;0.10;;;;;;;;;;4850766;29;20315;-79
2021/12/18 11:40:44;;;;;;;;;;;;;;;;;;4841698;29;20041;-79
2021/12/18 11:43:29;;;;;;;0.10;0.10;;;;;;;;;;4846072;29;19916;-80
2021/12/18 11:45:55;;;;;;;0.10;0.10;;;;;;;;;;4851241;29;20049;-80
2021/12/18 11:48:21;;;;;;;0.10;0.10;;;;;;;;;;4851838;29;20041;-80
2021/12/18 11:50:48;;;;;;;0.10;0.10;;;;;;;;;;4849217;29;20057;-79
2021/12/18 11:53:18;;;;;;;0.10;0.10;;;;;;;;;;4850940;29;20053;-81
2021/12/18 11:55:50;;;;;;;0.40;0.40;;;;;;;;;;4853322;29;20584;-78
2021/12/18 11:58:17;;;;;;;0.10;0.10;;;;;;;;;;4849191;29;20418;-78
2021/12/18 12:00:56;;;;;;;0.10;0.10;;;;;;;;;;4849477;29;20116;-79
2021/12/18 12:03:27;;;;;;;0.10;0.10;;;;;;;;;;4849865;29;20065;-79
2021/12/18 12:05:54;;;;;;;0.10;0.10;;;;;;;;;;4831559;29;20041;-79
2021/12/18 12:08:41;;;;;;;0.20;0.20;;;;;;;;;;4848045;29;20042;-79
2021/12/18 12:11:23;;;;;;;0.10;0.10;;;;;;;;;;4842965;29;20098;-78
2021/12/18 12:13:55;;;;;;;0.10;0.10;;;;;;;;;;4850917;29;20577;-79
2021/12/18 12:16:53;;;;;;;0.20;0.20;;;;;;;;;;4830879;29;20414;-79
2021/12/18 12:19:20;;;;;;;0.25;0.22;;;;;;;;;;4792625;29;20055;-79
2021/12/18 12:21:46;;;;;;;0.25;0.25;;;;;;;;;;4778594;29;20035;-79
2021/12/18 12:24:13;;;;;;;0.10;0.10;;;;;;;;;;4791974;29;20062;-79
2021/12/18 12:26:39;;;;;;;0.28;0.28;;;;;;;;;;4793190;29;20141;-79
2021/12/18 12:29:06;;;;;;;0.20;0.20;;;;;;;;;;4793020;29;20074;-78
2021/12/18 12:31:32;;;;;;;;;;;;;;;;;;4792865;29;20546;-79
2021/12/18 12:34:37;;;;;;;0.10;0.10;;;;;;;;;;4793488;29;19937;-80
2021/12/18 12:37:22;;;;;;;0.10;0.10;;;;;;;;;;4722589;30;20051;-79
2021/12/18 12:39:52;;;;;;;0.10;0.10;;;;;;;;;;4712486;30;20517;-79
2021/12/18 12:42:19;;;;;;;0.10;0.10;;;;;;;;;;4718692;30;20122;-80
2021/12/18 12:45:16;;;;;;;0.10;0.10;;;;;;;;;;5073157;28;20438;-79
2021/12/18 12:47:38;;;;;;;0.10;0.10;;;;;;;;;;5063006;28;20559;-79
2021/12/18 12:50:08;;;;;;;0.10;0.10;;;;;;;;;;5062951;28;20033;-79
2021/12/18 12:52:49;;;;;;;0.10;0.10;;;;;;;;;;5072719;28;20036;-78
2021/12/18 12:55:16;;;;;;;0.10;0.10;;;;;;;;;;5049208;28;20043;-78
2021/12/18 12:57:44;;;;;;;0.65;0.65;;;;;;;;;;5062926;28;20037;-79
2021/12/18 13:00:10;;;;;;;1.02;0.68;;;;;;;;;;5073019;28;20032;-78
2021/12/18 13:02:37;;;;;;;0.10;0.10;;;;;;;;;;5065826;28;20032;-78
2021/12/18 13:05:03;;;;;;;0.10;0.10;;;;;;;;;;5061714;28;20499;-78
2021/12/18 13:07:29;;;;;;;0.45;0.45;;;;;;;;;;5060128;28;20029;-78
2021/12/18 13:09:55;;;;;;;0.25;0.25;;;;;;;;;;5060166;28;20035;-78
2021/12/18 13:12:21;;;;;;;0.10;0.10;;;;;;;;;;5062433;28;20032;-79
2021/12/18 13:14:47;;;;;;;0.27;0.27;;;;;;;;;;5060914;28;20036;-79
2021/12/18 13:17:20;;;;;;;0.10;0.10;;;;;;;;;;5063677;28;20086;-78
2021/12/18 13:19:59;;;;;;;0.20;0.20;;;;;;;;;;5059185;28;20032;-78
2021/12/18 13:22:33;;;;;;;0.10;0.10;;;;;;;;;;5047031;28;20028;-78
2021/12/18 13:25:15;;;;;;;0.10;0.10;;;;;;;;;;5059135;28;20842;-78
2021/12/18 13:27:42;;;;;;;0.20;0.20;;;;;;;;;;5072968;28;20511;-79
2021/12/18 13:30:12;;;;;;;0.10;0.10;;;;;;;;;;5061897;28;20044;-78
2021/12/18 13:32:50;;;;;;;0.10;0.10;;;;;;;;;;5062632;28;20138;-79
2021/12/18 13:35:17;;;;;;;0.10;0.10;;;;;;;;;;5061676;28;20784;-79
2021/12/18 13:37:43;;;;;;;0.20;0.20;;;;;;;;;;5062803;28;20032;-78
2021/12/18 13:40:15;;;;;;;0.10;0.10;;;;;;;;;;5058379;28;20029;-78
2021/12/18 13:42:41;;;;;;;0.10;0.10;;;;;;;;;;5073472;28;20598;-78
2021/12/18 13:45:08;;;;;;;0.20;0.20;;;;;;;;;;5061963;28;20526;-78
2021/12/18 13:47:38;;;;;;;0.20;0.20;;;;;;;;;;5056511;28;20032;-78
2021/12/18 13:50:09;;;;;;;0.30;0.30;;;;;;;;;;5056053;28;20036;-78
2021/12/18 13:52:37;;;;;;;0.10;0.10;;;;;;;;;;5057926;28;20039;-78
2021/12/18 13:55:18;;;;;;;0.20;0.20;;;;;;;;;;5048386;28;20029;-78
2021/12/18 13:57:56;;;;;;;0.50;0.47;;;;;;;;;;5042027;28;20037;-79
2021/12/18 14:00:22;;;;;;;0.10;0.10;;;;;;;;;;5047173;28;20052;-78
2021/12/18 14:02:48;;;;;;;0.10;0.10;;;;;;;;;;5046681;28;20080;-79
2021/12/18 14:05:14;;;;;;;0.20;0.20;;;;;;;;;;5045603;28;20542;-78
2021/12/18 14:07:41;;;;;;;0.65;0.40;;;;;;;;;;5044413;28;20036;-80
2021/12/18 14:10:08;;;;;;;0.10;0.10;;;;;;;;;;5041831;28;20112;-79
2021/12/18 14:12:34;;;;;;;0.10;0.10;;;;;;;;;;5048293;28;20036;-79
2021/12/18 14:15:00;;;;;;;0.10;0.10;;;;;;;;;;5045346;28;20044;-80
2021/12/18 14:17:26;;;;;;;0.30;0.30;;;;;;;;;;5043023;28;20029;-80
2021/12/18 14:19:53;;;;;;;0.40;0.40;;;;;;;;;;5049017;28;20518;-79
2021/12/18 14:22:31;;;;;;;0.10;0.10;;;;;;;;;;5045134;28;20056;-79
2021/12/18 14:25:17;;;;;;;0.30;0.30;;;;;;;;;;5045774;28;20151;-79
2021/12/18 14:27:45;;;;;;;0.10;0.10;;;;;;;;;;5043585;28;20033;-79
2021/12/18 14:30:21;;;;;;;0.63;0.63;;;;;;;;;;5043375;28;20041;-79
2021/12/18 14:32:47;;;;;;;;;;;;;;;;;;5042863;28;20076;-79
2021/12/18 14:35:15;;;;;;;0.10;0.10;;;;;;;;;;5042212;28;20244;-79
2021/12/18 14:37:48;;;;;;;0.10;0.10;;;;;;;;;;5041399;28;20116;-79
2021/12/18 14:40:18;;;;;;;0.28;0.28;;;;;;;;;;5040700;28;20037;-78
2021/12/18 14:42:54;;;;;;;0.10;0.10;;;;;;;;;;5040264;28;20535;-78
2021/12/18 14:45:24;;;;;;;0.50;0.50;;;;;;;;;;5044712;28;20091;-79
2021/12/18 14:47:52;;;;;;;0.20;0.20;;;;;;;;;;5044216;28;20602;-79
2021/12/18 14:50:24;;;;;;;0.17;0.17;;;;;;;;;;5048650;28;20104;-78
2021/12/18 14:52:50;;;;;;;0.30;0.30;;;;;;;;;;5052914;28;20033;-77
2021/12/18 14:55:18;;;;;;;0.10;0.10;;;;;;;;;;5042155;28;20025;-78
2021/12/18 14:57:56;;;;;;;0.40;0.40;;;;;;;;;;5046734;28;20040;-82
2021/12/18 15:00:27;;;;;;;0.10;0.10;;;;;;;;;;5047549;28;20029;-82
2021/12/18 15:02:54;;;;;;;0.52;0.40;;;;;;;;;;5030828;28;20025;-82
2021/12/18 15:05:19;;;;;;;;;;;;;;;;;;5040763;28;20515;-82
2021/12/18 15:07:56;;;;;;;0.10;0.10;;;;;;;;;;5045003;28;19915;-81
2021/12/18 15:10:22;;;;;;;0.10;0.10;;;;;;;;;;5043239;28;20025;-82
2021/12/18 15:12:48;;;;;;;0.52;0.52;;;;;;;;;;5046640;28;20151;-82
2021/12/18 15:15:14;;;;;;;0.10;0.10;;;;;;;;;;5046919;28;20112;-82
2021/12/18 15:17:40;;;;;;;0.10;0.10;;;;;;;;;;5046312;28;20090;-82
2021/12/18 15:20:07;;;;;;;0.10;0.10;;;;;;;;;;5046257;28;20071;-82
2021/12/18 15:22:33;;;;;;;0.10;0.10;;;;;;;;;;5044904;28;20023;-82
2021/12/18 15:24:59;;;;;;;0.10;0.10;;;;;;;;;;5044719;28;20037;-82
2021/12/18 15:27:25;;;;;;;0.20;0.20;;;;;;;;;;5047848;28;20036;-82
2021/12/18 15:29:51;;;;;;;0.60;0.50;;;;;;;;;;5045871;28;20033;-82
2021/12/18 15:32:19;;;;;;;0.17;0.17;;;;;;;;;;5045891;28;20029;-82
2021/12/18 15:34:49;;;;;;;0.05;0.05;;;;;;;;;;5045833;28;20115;-81
2021/12/18 15:37:15;;;;;;;0.30;0.30;;;;;;;;;;5042139;28;20479;-82